Perezville, Texas
Current Conditions -  °F | °C
As of 11:53 PM on Wednesday 26 Nov 2014 (Local Time) from KMFE Reporting Station
Clear Clear  
Wind Chill: 50°   Ceiling: Unl
Heat Index: 50°   Visibility: 10mi
Dew Point: 48°   Wind: 6mph
Humidity: 93%   Direction: 130°SE
Pressure: 30.32"   Gusts: NA
Location:  26.2167°N, 98.325°W
Report Text: KMFE 270553Z 13005KT 10SM CLR 10/09 A3032 RMK AO2 SLP265 T01000089 10172 20100 402390056 50007
Loading
Personal Weather Stations






























Interactive Weather Map New forecast layout! Learn more

10-Day Weather Forecast

Advertisements
Track Severe Weather on mobile